Time;durP1;ratioP1;P1;durP2;ratioP2;P2;SDS_P1;SDS_P2;PMS_P1;PMS_P2;Temp;Humidity;BMP_temperature;BMP_pressure;BME280_temperature;BME280_humidity;BME280_pressure;Samples;Min_cycle;Max_cycle;Signal;HPM_P1;HPM_P2
2022/11/06 00:01:14;;;;;;;7.07;3.50;;;;;;;17.03;48.96;99025.22;4990304;28;20053;-91
2022/11/06 00:03:40;;;;;;;8.30;3.38;;;;;;;16.94;49.39;99028.75;4996989;28;20114;-91
2022/11/06 00:08:54;;;;;;;7.60;3.00;;;;;;;16.94;50.01;99027.94;5008119;28;20068;-92
2022/11/06 00:11:19;;;;;;;9.15;3.72;;;;;;;16.85;49.79;99035.28;4995360;28;20052;-92
2022/11/06 00:13:46;;;;;;;7.05;2.92;;;;;;;16.85;49.97;99030.66;5000089;28;20033;-92
2022/11/06 00:16:12;;;;;;;10.00;3.03;;;;;;;16.81;49.82;99023.44;5020424;28;20061;-92
2022/11/06 00:18:38;;;;;;;3.60;2.35;;;;;;;16.86;50.06;99034.19;5002795;28;20116;-92
2022/11/06 00:21:07;;;;;;;9.02;3.33;;;;;;;16.85;50.10;99029.84;4999311;28;20045;-93
2022/11/06 00:23:33;;;;;;;6.13;2.90;;;;;;;16.79;50.15;99023.75;5004810;28;20507;-90
2022/11/06 00:25:58;;;;;;;5.82;3.08;;;;;;;16.87;50.51;99027.59;4991952;28;20037;-93
2022/11/06 00:28:24;;;;;;;6.00;2.88;;;;;;;16.80;50.06;99019.91;4995914;28;20087;-93
2022/11/06 00:30:49;;;;;;;11.25;3.45;;;;;;;16.81;50.18;99020.72;5005177;28;20028;-94
2022/11/06 00:33:15;;;;;;;6.85;3.03;;;;;;;16.66;50.81;99011.88;4994452;28;20030;-93
2022/11/06 00:35:40;;;;;;;8.00;3.30;;;;;;;16.81;50.82;99032.41;4990310;28;20033;-93
2022/11/06 00:38:06;;;;;;;10.02;3.00;;;;;;;16.86;50.71;99036.91;5000312;28;20041;-92
2022/11/06 00:40:32;;;;;;;9.07;3.10;;;;;;;16.65;51.07;99020.38;4996832;28;20129;-92
2022/11/06 00:43:00;;;;;;;8.65;3.40;;;;;;;16.81;51.17;99039.75;5008203;28;20064;-93
2022/11/06 00:45:25;;;;;;;7.32;3.28;;;;;;;16.73;51.31;99039.41;4980753;28;20029;-92
2022/11/06 00:47:53;;;;;;;9.30;3.95;;;;;;;16.86;51.50;99039.63;5019119;28;20492;-92
2022/11/06 00:50:19;;;;;;;5.65;3.17;;;;;;;16.74;51.77;99032.84;4992374;28;20021;-93
2022/11/06 00:52:44;;;;;;;5.82;3.08;;;;;;;16.78;51.71;99033.00;4994075;28;20026;-92
2022/11/06 00:55:10;;;;;;;6.97;3.15;;;;;;;16.83;51.65;99041.06;4991382;28;20025;-92
2022/11/06 00:57:35;;;;;;;6.78;3.00;;;;;;;16.83;51.88;99032.06;4995096;28;20044;-92
2022/11/06 01:00:01;;;;;;;5.45;2.97;;;;;;;16.78;51.83;99030.28;4998688;28;20029;-93
2022/11/06 01:02:26;;;;;;;10.45;3.63;;;;;;;16.72;52.16;99026.91;4987102;28;20034;-93
2022/11/06 01:04:52;;;;;;;7.68;4.00;;;;;;;16.64;52.50;99024.19;5023352;28;20024;-92
2022/11/06 01:07:17;;;;;;;8.52;3.55;;;;;;;16.73;52.24;99025.81;4995220;28;20029;-91
2022/11/06 01:09:43;;;;;;;7.22;3.15;;;;;;;16.70;52.43;99023.72;4994972;28;20026;-91
2022/11/06 01:12:08;;;;;;;6.57;3.13;;;;;;;16.59;52.79;99014.28;4993126;28;20068;-89
2022/11/06 01:14:34;;;;;;;5.18;3.17;;;;;;;16.74;52.74;99041.00;4996081;28;20048;-92
2022/11/06 01:16:59;;;;;;;8.68;3.80;;;;;;;16.72;52.44;99020.69;4993737;28;20052;-90
2022/11/06 01:19:25;;;;;;;5.95;3.25;;;;;;;16.70;52.36;99029.16;4996727;28;20025;-93
2022/11/06 01:21:54;;;;;;;8.07;3.55;;;;;;;16.55;52.88;99016.81;4990569;28;20039;-93
2022/11/06 01:24:21;;;;;;;8.75;3.83;;;;;;;16.74;52.45;99032.84;4996669;28;20025;-92
2022/11/06 01:26:47;;;;;;;6.38;3.28;;;;;;;16.78;52.56;99038.44;5000498;28;20030;-92
2022/11/06 01:29:14;;;;;;;8.95;4.30;;;;;;;16.63;52.19;99020.69;4991071;28;20102;-92
2022/11/06 01:31:39;;;;;;;13.45;4.13;;;;;;;16.82;52.37;99055.75;5010148;28;20487;-92
2022/11/06 01:34:05;;;;;;;8.23;3.70;;;;;;;16.65;52.65;99032.03;4982838;28;20032;-92
2022/11/06 01:36:30;;;;;;;9.00;3.33;;;;;;;16.73;52.28;99044.06;4990041;28;20109;-92
2022/11/06 01:38:58;;;;;;;7.32;3.20;;;;;;;16.73;52.23;99044.06;4998237;28;20487;-93
2022/11/06 01:41:33;;;;;;;8.52;3.17;;;;;;;16.68;52.20;99033.31;5000078;28;20028;-92
2022/11/06 01:44:00;;;;;;;8.77;3.03;;;;;;;16.61;51.35;99025.63;4995380;28;20084;-92
2022/11/06 01:46:28;;;;;;;5.72;3.33;;;;;;;16.57;51.59;99024.66;5002322;28;20028;-92
2022/11/06 01:49:03;;;;;;;7.15;3.30;;;;;;;16.60;51.52;99047.69;5006901;28;20017;-90
2022/11/06 01:51:31;;;;;;;9.35;3.30;;;;;;;16.53;51.21;99020.97;4990443;28;20021;-92
2022/11/06 01:53:56;;;;;;;6.43;2.80;;;;;;;16.49;51.27;99018.09;4992381;28;20090;-92
2022/11/06 01:56:22;;;;;;;7.57;3.15;;;;;;;16.55;51.01;99038.56;4997052;28;20029;-92
2022/11/06 01:58:49;;;;;;;6.20;2.80;;;;;;;16.71;51.09;99062.59;4990238;28;20018;-93
2022/11/06 02:01:15;;;;;;;10.65;3.47;;;;;;;16.53;51.00;99059.03;4985404;28;20056;-92
2022/11/06 02:03:52;;;;;;;6.00;2.70;;;;;;;16.50;50.88;99044.16;4988785;28;20554;-93
2022/11/06 02:06:17;;;;;;;5.85;3.22;;;;;;;16.52;50.89;99052.00;4991721;28;20024;-92
2022/11/06 02:08:43;;;;;;;8.35;3.10;;;;;;;16.53;50.96;99064.47;4998063;28;20016;-92
2022/11/06 02:11:08;;;;;;;6.82;3.00;;;;;;;16.41;50.87;99056.09;4995977;28;20025;-92
2022/11/06 02:13:43;;;;;;;8.20;3.17;;;;;;;16.50;50.84;99063.19;4991945;28;20086;-92
2022/11/06 02:16:15;;;;;;;8.98;3.05;;;;;;;16.42;50.86;99061.25;5006929;28;20471;-91
2022/11/06 02:18:57;;;;;;;8.50;2.92;;;;;;;16.42;51.17;99057.72;4993352;28;20022;-93
2022/11/06 02:21:33;;;;;;;5.22;2.95;;;;;;;16.43;51.23;99068.25;5009890;28;20174;-91
2022/11/06 02:24:24;;;;;;;7.05;3.58;;;;;;;16.33;51.33;99054.97;5004253;28;20121;-92
2022/11/06 02:27:04;;;;;;;4.75;3.00;;;;;;;16.43;51.48;99067.47;5035079;28;20029;-92
2022/11/06 02:30:21;;;;;;;6.85;3.25;;;;;;;16.43;51.35;99075.63;5017411;28;20018;-92
2022/11/06 02:32:57;;;;;;;6.18;3.22;;;;;;;16.35;51.36;99071.75;4986301;28;20055;-92
2022/11/06 02:35:31;;;;;;;5.55;3.40;;;;;;;16.40;51.58;99074.34;4992414;28;20017;-92
2022/11/06 02:38:00;;;;;;;6.88;2.83;;;;;;;16.40;51.25;99079.78;4993653;28;20046;-93
2022/11/06 02:40:32;;;;;;;6.53;3.15;;;;;;;16.29;51.54;99065.66;4998868;28;20035;-92
2022/11/06 02:42:57;;;;;;;5.35;2.80;;;;;;;16.34;51.61;99084.53;4986489;28;20025;-92
2022/11/06 02:45:23;;;;;;;8.52;4.18;;;;;;;16.28;51.87;99083.06;4984765;28;20035;-92
2022/11/06 02:47:49;;;;;;;7.90;3.50;;;;;;;16.30;51.89;99091.72;4998182;28;20029;-92
2022/11/06 02:50:19;;;;;;;9.63;3.45;;;;;;;16.15;51.81;99073.91;5001463;28;20028;-92
2022/11/06 02:52:54;;;;;;;10.20;3.60;;;;;;;16.21;52.08;99084.63;4987089;28;20022;-92
2022/11/06 02:55:33;;;;;;;5.75;3.03;;;;;;;16.08;52.32;99080.91;4988491;28;20036;-92
2022/11/06 02:58:37;;;;;;;7.20;3.13;;;;;;;16.15;52.49;99101.06;4985734;28;20029;-92
2022/11/06 03:01:17;;;;;;;8.52;3.10;;;;;;;16.02;52.83;99093.84;4999850;28;20447;-92
2022/11/06 03:03:46;;;;;;;6.07;2.92;;;;;;;15.95;52.97;99099.69;4992733;28;20030;-92
2022/11/06 03:06:23;;;;;;;11.73;3.60;;;;;;;15.92;53.19;99103.03;4995080;28;20106;-92
2022/11/06 03:08:57;;;;;;;7.53;3.50;;;;;;;15.91;53.28;99108.75;4984327;28;20479;-92
2022/11/06 03:11:27;;;;;;;11.82;3.70;;;;;;;15.88;53.54;99109.41;4992422;28;20022;-92
2022/11/06 03:13:55;;;;;;;7.32;3.30;;;;;;;15.85;53.51;99110.78;4996954;28;20243;-92
2022/11/06 03:16:42;;;;;;;5.57;3.03;;;;;;;15.81;53.96;99103.59;5021554;28;20538;-91
2022/11/06 03:19:36;;;;;;;4.28;2.80;;;;;;;15.71;54.07;99097.28;5013683;28;20086;-92
2022/11/06 03:22:09;;;;;;;7.90;3.47;;;;;;;15.68;54.16;99097.88;5011307;28;20059;-92
2022/11/06 03:24:40;;;;;;;7.97;3.30;;;;;;;15.61;54.09;99085.88;5010692;28;20167;-93
2022/11/06 03:27:11;;;;;;;;;;;;;;;15.65;54.48;99112.09;5007851;28;20036;-92
2022/11/06 03:29:48;;;;;;;5.57;3.00;;;;;;;15.60;54.60;99114.91;5025489;28;19920;-92
2022/11/06 03:32:16;;;;;;;7.30;3.58;;;;;;;15.57;54.61;99118.25;4994195;28;20026;-92
2022/11/06 03:35:05;;;;;;;6.60;3.97;;;;;;;15.52;54.90;99116.47;5011224;28;20030;-91
2022/11/06 03:37:37;;;;;;;14.93;4.05;;;;;;;15.52;55.12;99131.94;5011373;28;20392;-92
2022/11/06 03:40:07;;;;;;;6.95;4.15;;;;;;;15.36;55.13;99118.72;5003545;28;20037;-92
2022/11/06 03:42:33;;;;;;;5.10;3.63;;;;;;;15.36;55.10;99120.63;4990712;28;20143;-92
2022/11/06 03:45:05;;;;;;;9.38;3.95;;;;;;;15.35;55.33;99124.44;4999818;28;20044;-92
2022/11/06 03:47:37;;;;;;;7.07;3.20;;;;;;;15.40;55.37;99139.81;4991756;28;20419;-92
2022/11/06 03:50:16;;;;;;;9.73;4.10;;;;;;;15.35;55.47;99136.09;5021782;28;20028;-91
2022/11/06 03:52:45;;;;;;;8.15;3.58;;;;;;;15.27;55.62;99138.72;5022587;28;20062;-92
2022/11/06 03:55:13;;;;;;;6.22;3.22;;;;;;;15.26;55.74;99148.00;4979919;28;20040;-91
2022/11/06 03:57:45;;;;;;;9.10;3.75;;;;;;;15.18;55.98;99135.16;4992137;28;20032;-92
2022/11/06 04:00:11;;;;;;;8.43;3.95;;;;;;;15.04;56.15;99125.13;4996794;28;20447;-92
2022/11/06 04:02:38;;;;;;;8.57;4.05;;;;;;;15.06;56.29;99135.66;4985044;28;20032;-91
2022/11/06 04:05:08;;;;;;;6.97;4.10;;;;;;;15.06;56.46;99135.66;5001936;28;20029;-92
2022/11/06 04:07:35;;;;;;;7.88;4.28;;;;;;;15.07;56.35;99143.50;5013956;28;20025;-92
2022/11/06 04:15:31;;;;;;;6.78;3.30;;;;;;;15.07;56.98;99151.63;5014810;28;20032;-92
2022/11/06 04:17:57;;;;;;;7.20;4.03;;;;;;;15.00;57.13;99136.88;4987416;28;20154;-92
2022/11/06 04:23:22;;;;;;;7.57;3.78;;;;;;;15.07;57.37;99151.63;5022756;28;20094;-92
2022/11/06 04:29:06;;;;;;;10.10;4.63;;;;;;;15.03;57.77;99160.69;5030905;28;20079;-91
2022/11/06 04:31:32;;;;;;;10.77;3.97;;;;;;;14.98;57.89;99158.88;4998662;28;20034;-92
2022/11/06 04:34:12;;;;;;;11.55;4.55;;;;;;;14.97;58.05;99170.84;5024274;28;20115;-91
2022/11/06 04:37:08;;;;;;;9.10;4.07;;;;;;;14.92;58.33;99168.22;5016650;28;20036;-91
2022/11/06 04:39:39;;;;;;;10.30;4.97;;;;;;;14.88;58.44;99175.34;5008403;28;20037;-91
2022/11/06 04:42:05;;;;;;;12.43;4.82;;;;;;;14.81;58.51;99158.69;5007475;28;20026;-92
2022/11/06 04:44:37;;;;;;;7.28;4.15;;;;;;;14.73;59.08;99144.75;5016125;28;20032;-92
2022/11/06 04:47:07;;;;;;;7.57;3.83;;;;;;;14.72;58.68;99153.16;4995656;28;20057;-92
2022/11/06 04:49:34;;;;;;;8.32;4.72;;;;;;;14.68;59.14;99155.69;5000501;28;20021;-91
2022/11/06 04:52:01;;;;;;;8.85;4.55;;;;;;;14.64;59.29;99151.97;4994335;28;20025;-92
2022/11/06 04:54:27;;;;;;;10.07;4.70;;;;;;;14.54;59.53;99144.78;4991222;28;20029;-89
2022/11/06 04:56:59;;;;;;;9.90;4.65;;;;;;;14.64;59.68;99160.09;4996109;28;20554;-92
2022/11/06 04:59:24;;;;;;;11.18;5.72;;;;;;;14.61;59.93;99159.88;4998236;28;20072;-92
2022/11/06 05:01:50;;;;;;;5.97;4.40;;;;;;;14.62;59.66;99159.59;4996079;28;20033;-92
2022/11/06 05:04:15;;;;;;;16.88;5.53;;;;;;;14.58;59.91;99161.28;4998549;28;20040;-91
2022/11/06 05:06:41;;;;;;;12.27;4.90;;;;;;;14.54;60.12;99157.53;4998309;28;20037;-92
2022/11/06 05:09:06;;;;;;;8.80;5.15;;;;;;;14.46;60.27;99147.41;4996245;28;20029;-92
2022/11/06 05:11:32;;;;;;;10.82;4.80;;;;;;;14.51;60.21;99163.56;4993389;28;20052;-92
2022/11/06 05:13:57;;;;;;;6.80;4.80;;;;;;;14.47;60.43;99157.94;5001591;28;20507;-92
2022/11/06 05:16:23;;;;;;;8.35;4.65;;;;;;;14.47;60.43;99159.84;4997061;28;20028;-91
2022/11/06 05:18:48;;;;;;;8.80;4.90;;;;;;;14.51;60.30;99166.28;4989201;28;20141;-92
2022/11/06 05:23:57;;;;;;;8.68;4.63;;;;;;;14.56;60.59;99182.47;5011261;28;20040;-92
2022/11/06 05:26:23;;;;;;;10.25;5.03;;;;;;;14.56;60.67;99196.00;4986654;28;20416;-92
2022/11/06 05:28:48;;;;;;;9.30;4.90;;;;;;;14.52;60.49;99189.56;4996629;28;20034;-91
2022/11/06 05:31:14;;;;;;;7.30;4.97;;;;;;;14.60;60.77;99204.34;4986246;28;20025;-92
2022/11/06 05:33:39;;;;;;;10.15;5.22;;;;;;;14.58;60.62;99196.50;4992352;28;20032;-92
2022/11/06 05:36:08;;;;;;;12.98;5.28;;;;;;;14.55;60.45;99197.91;5000054;28;20032;-92
2022/11/06 05:38:33;;;;;;;15.13;5.45;;;;;;;14.57;60.68;99200.34;5007989;28;20044;-92
2022/11/06 05:40:59;;;;;;;8.70;4.72;;;;;;;14.62;60.83;99216.50;5009715;28;20041;-92
2022/11/06 05:43:24;;;;;;;12.10;4.97;;;;;;;14.57;60.76;99211.19;5008735;28;20464;-91
2022/11/06 05:45:50;;;;;;;9.75;5.47;;;;;;;14.57;60.74;99211.19;5004416;28;20056;-91
2022/11/06 05:48:15;;;;;;;12.88;5.72;;;;;;;14.61;60.95;99220.31;5001029;28;20061;-92
2022/11/06 05:50:41;;;;;;;9.80;5.25;;;;;;;14.59;60.97;99221.69;5009902;28;20040;-92
2022/11/06 05:53:06;;;;;;;12.98;5.00;;;;;;;14.52;60.78;99212.03;5000897;28;20025;-92
2022/11/06 05:55:32;;;;;;;14.77;6.03;;;;;;;14.37;60.70;99225.84;4993618;28;20036;-92
2022/11/06 05:57:57;;;;;;;13.75;5.40;;;;;;;14.20;60.52;99212.06;4988083;28;20037;-92
2022/11/06 06:00:23;;;;;;;11.90;5.05;;;;;;;14.20;60.47;99215.56;4994393;28;20039;-93
2022/11/06 06:02:48;;;;;;;8.13;4.53;;;;;;;14.24;60.67;99226.63;4995623;28;20043;-93
2022/11/06 06:05:14;;;;;;;11.50;5.32;;;;;;;14.23;60.58;99220.38;4996550;28;20026;-91
2022/11/06 06:07:40;;;;;;;10.90;6.82;;;;;;;14.28;60.94;99222.22;5013438;28;20195;-91
2022/11/06 06:10:06;;;;;;;10.48;5.57;;;;;;;14.27;61.00;99228.72;4997172;28;20028;-91
2022/11/06 06:12:31;;;;;;;11.02;4.95;;;;;;;14.28;60.90;99214.88;4998931;28;20037;-90
2022/11/06 06:14:57;;;;;;;15.65;5.68;;;;;;;14.22;60.57;99215.28;5000992;28;20025;-91
2022/11/06 06:17:22;;;;;;;10.70;5.05;;;;;;;14.20;60.68;99212.84;5020381;28;20036;-93
2022/11/06 06:19:48;;;;;;;7.68;5.28;;;;;;;14.26;60.58;99227.94;4997095;28;20489;-90
2022/11/06 06:22:13;;;;;;;12.52;6.47;;;;;;;14.27;60.38;99226.81;4995879;28;20028;-91
2022/11/06 06:24:39;;;;;;;12.27;5.43;;;;;;;14.22;60.66;99228.81;4989155;28;20041;-91
2022/11/06 06:27:05;;;;;;;13.52;5.53;;;;;;;14.31;60.40;99225.13;4999239;28;20082;-91
2022/11/06 06:29:30;;;;;;;11.48;5.05;;;;;;;14.23;60.30;99217.66;4989983;28;20026;-92
2022/11/06 06:31:56;;;;;;;9.30;5.38;;;;;;;14.32;60.27;99231.38;4981922;28;20029;-91
2022/11/06 06:34:21;;;;;;;10.23;5.05;;;;;;;14.15;60.58;99221.06;5005499;28;20030;-92
2022/11/06 06:36:51;;;;;;;12.38;5.60;;;;;;;14.33;60.41;99239.16;5015801;28;20022;-91
2022/11/06 06:39:18;;;;;;;12.77;5.50;;;;;;;14.35;60.10;99230.75;4990070;28;20053;-91
2022/11/06 06:41:44;;;;;;;11.27;5.22;;;;;;;14.42;60.38;99241.19;5009431;28;20517;-92
2022/11/06 06:44:09;;;;;;;19.10;10.13;;;;;;;14.31;60.48;99232.44;4997581;28;20054;-92
2022/11/06 06:46:35;;;;;;;18.50;7.53;;;;;;;14.35;61.00;99250.50;4997465;28;20032;-91
2022/11/06 06:49:00;;;;;;;13.18;7.82;;;;;;;14.46;60.92;99255.75;5009760;28;20035;-91
2022/11/06 06:51:26;;;;;;;19.45;9.63;;;;;;;14.61;60.49;99254.72;4996146;28;20028;-91
2022/11/06 06:53:51;;;;;;;12.63;6.05;;;;;;;14.58;60.39;99234.44;4993864;28;20055;-91
2022/11/06 06:56:17;;;;;;;13.95;6.70;;;;;;;14.72;60.21;99256.16;4990832;28;20430;-91
2022/11/06 06:58:43;;;;;;;10.30;6.63;;;;;;;14.83;60.13;99259.47;4981068;28;20411;-93
2022/11/06 07:01:09;;;;;;;20.20;6.45;;;;;;;14.88;60.35;99265.63;4996813;28;20029;-92
2022/11/06 07:03:36;;;;;;;17.30;6.80;;;;;;;14.96;60.27;99261.41;5011058;28;20385;-91
2022/11/06 07:06:03;;;;;;;12.70;6.65;;;;;;;15.03;60.37;99264.53;4982594;28;20032;-91
2022/11/06 07:08:30;;;;;;;11.70;6.07;;;;;;;15.09;60.32;99265.25;5020744;28;20045;-92
2022/11/06 07:11:00;;;;;;;12.93;6.35;;;;;;;15.24;59.86;99278.50;5000396;28;20040;-91
2022/11/06 07:13:27;;;;;;;15.30;7.00;;;;;;;15.24;59.43;99259.50;4986276;28;20393;-92
2022/11/06 07:15:54;;;;;;;12.07;7.05;;;;;;;15.42;59.40;99275.97;4999166;28;20521;-91
2022/11/06 07:18:22;;;;;;;20.38;11.48;;;;;;;15.31;59.36;99254.47;5032986;28;20032;-91
2022/11/06 07:20:50;;;;;;;21.50;7.82;;;;;;;15.31;59.89;99253.66;5000204;28;20473;-91
2022/11/06 07:23:16;;;;;;;16.35;8.00;;;;;;;15.36;59.53;99270.66;5001760;28;20029;-92
2022/11/06 07:25:42;;;;;;;11.48;7.18;;;;;;;15.44;59.07;99266.44;5002629;28;20033;-91
2022/11/06 07:28:10;;;;;;;15.95;7.15;;;;;;;15.55;58.75;99264.31;4984350;28;20055;-90
2022/11/06 07:30:36;;;;;;;14.95;7.00;;;;;;;15.67;58.95;99270.00;5010498;28;20025;-91
2022/11/06 07:33:03;;;;;;;16.17;7.25;;;;;;;15.77;58.67;99260.84;5000804;28;20034;-91
2022/11/06 07:35:30;;;;;;;12.55;6.85;;;;;;;15.99;58.47;99281.03;4984460;28;20072;-91
2022/11/06 07:37:57;;;;;;;19.95;7.20;;;;;;;15.97;58.44;99270.47;4974863;28;20061;-91
2022/11/06 07:40:23;;;;;;;15.50;7.45;;;;;;;16.04;58.05;99283.59;4965743;28;20554;-92
2022/11/06 07:42:51;;;;;;;16.85;7.68;;;;;;;15.98;57.60;99276.69;4979277;28;20523;-92
2022/11/06 07:45:17;;;;;;;15.00;8.15;;;;;;;16.06;56.97;99274.06;4985093;28;20108;-91
2022/11/06 07:47:42;;;;;;;15.90;7.35;;;;;;;16.22;56.76;99284.56;4963612;28;20030;-92
2022/11/06 07:50:08;;;;;;;13.35;8.07;;;;;;;16.28;56.72;99277.91;4967730;28;20029;-91
2022/11/06 07:52:35;;;;;;;16.35;7.70;;;;;;;16.35;57.07;99270.09;4996454;28;20030;-93
2022/11/06 07:55:02;;;;;;;15.70;7.90;;;;;;;16.44;56.90;99272.91;4963533;28;20060;-92
2022/11/06 07:57:28;;;;;;;17.45;8.40;;;;;;;16.45;56.57;99260.91;4991933;28;20393;-92
2022/11/06 07:59:55;;;;;;;14.95;8.40;;;;;;;16.52;56.51;99266.72;4972684;28;20096;-91
2022/11/06 08:02:21;;;;;;;13.23;7.85;;;;;;;16.69;56.54;99276.88;4965107;28;20031;-91
2022/11/06 08:04:48;;;;;;;14.75;7.57;;;;;;;16.90;55.90;99288.84;4986972;28;20544;-91
2022/11/06 08:07:14;;;;;;;11.25;7.55;;;;;;;16.93;55.70;99288.25;4968405;28;20026;-92
2022/11/06 08:09:42;;;;;;;17.10;7.82;;;;;;;16.92;56.32;99270.31;4983392;28;20026;-91
2022/11/06 08:12:08;;;;;;;16.10;7.50;;;;;;;17.09;55.95;99288.63;4990003;28;20113;-91
2022/11/06 08:14:34;;;;;;;12.63;7.18;;;;;;;17.17;55.45;99297.94;4966628;28;20041;-91
2022/11/06 08:16:59;;;;;;;13.65;7.18;;;;;;;17.17;55.48;99282.41;4981924;28;20077;-91
2022/11/06 08:19:26;;;;;;;11.60;6.57;;;;;;;17.35;55.22;99301.53;4972234;28;20054;-90
2022/11/06 08:21:54;;;;;;;10.27;6.55;;;;;;;17.42;54.99;99307.31;4991070;28;20033;-92
2022/11/06 08:24:22;;;;;;;11.38;6.93;;;;;;;17.53;54.26;99305.09;4989449;28;20032;-92
2022/11/06 08:26:48;;;;;;;15.02;7.93;;;;;;;17.50;54.44;99290.22;4989515;28;20046;-91
2022/11/06 08:29:16;;;;;;;15.98;8.07;;;;;;;17.64;54.35;99295.53;4995262;28;20018;-91
2022/11/06 08:31:43;;;;;;;11.35;7.43;;;;;;;17.70;53.91;99297.00;4979288;28;20086;-91
2022/11/06 08:34:10;;;;;;;22.08;8.48;;;;;;;17.67;53.85;99278.53;4998221;28;20022;-91
2022/11/06 08:36:38;;;;;;;13.75;8.27;;;;;;;17.71;53.81;99284.16;4969877;28;20207;-93
2022/11/06 08:39:04;;;;;;;21.35;8.55;;;;;;;17.73;53.57;99281.94;4977827;28;20040;-91
2022/11/06 08:41:29;;;;;;;11.40;8.40;;;;;;;17.86;54.17;99285.66;4997665;28;20053;-91
2022/11/06 08:43:55;;;;;;;14.63;7.95;;;;;;;17.86;53.92;99281.00;4987339;28;20116;-93
2022/11/06 08:46:22;;;;;;;24.55;11.45;;;;;;;17.95;53.91;99286.44;4996262;28;20063;-90
2022/11/06 08:48:49;;;;;;;21.50;12.55;;;;;;;17.96;53.46;99283.41;5000846;28;20553;-93
2022/11/06 08:51:18;;;;;;;20.67;10.80;;;;;;;17.95;53.66;99291.91;4999531;28;20025;-93
2022/11/06 08:53:44;;;;;;;19.20;10.50;;;;;;;18.05;53.45;99304.41;4999779;28;20037;-93
2022/11/06 08:56:10;;;;;;;16.02;9.13;;;;;;;18.06;53.30;99306.81;5016880;28;20033;-93
2022/11/06 08:58:35;;;;;;;14.02;8.23;;;;;;;18.09;53.29;99294.47;4984322;28;20041;-90
2022/11/06 09:01:01;;;;;;;15.85;7.72;;;;;;;18.13;52.84;99306.34;4980760;28;20040;-91
2022/11/06 09:03:26;;;;;;;13.20;7.65;;;;;;;18.20;53.04;99303.13;4982379;28;20033;-92
2022/11/06 09:05:52;;;;;;;17.27;8.30;;;;;;;18.09;52.82;99286.31;4980132;28;20032;-92
2022/11/06 09:08:18;;;;;;;14.18;8.40;;;;;;;18.11;53.21;99290.31;4993260;28;20033;-90
2022/11/06 09:10:46;;;;;;;17.75;8.15;;;;;;;18.15;53.37;99293.19;4980174;28;20092;-92
2022/11/06 09:13:13;;;;;;;19.98;9.32;;;;;;;18.11;53.17;99281.34;4998399;28;20048;-92
2022/11/06 09:15:39;;;;;;;13.18;8.27;;;;;;;18.14;53.27;99294.34;4989709;28;20037;-91
2022/11/06 09:18:04;;;;;;;16.27;8.38;;;;;;;18.22;52.80;99303.59;4984259;28;20415;-91
2022/11/06 09:20:30;;;;;;;14.85;8.60;;;;;;;18.24;52.80;99293.19;5000686;28;20029;-91
2022/11/06 09:23:02;;;;;;;12.27;8.02;;;;;;;18.20;52.73;99293.03;5001862;28;20480;-90
2022/11/06 09:25:28;;;;;;;18.52;9.05;;;;;;;18.11;53.14;99286.78;5005816;28;20484;-92
2022/11/06 09:27:54;;;;;;;17.17;10.18;;;;;;;18.06;52.92;99278.78;4985207;28;20099;-91
2022/11/06 09:30:20;;;;;;;20.77;10.27;;;;;;;18.07;52.97;99280.38;4986552;28;20034;-91
2022/11/06 09:32:47;;;;;;;14.48;8.30;;;;;;;18.04;52.48;99278.31;5003179;28;20033;-91
2022/11/06 09:35:14;;;;;;;11.52;6.72;;;;;;;18.02;52.07;99266.91;4997866;28;20025;-92
2022/11/06 09:37:40;;;;;;;9.27;5.75;;;;;;;17.98;51.89;99266.75;5026035;28;20061;-91
2022/11/06 09:40:08;;;;;;;12.48;6.28;;;;;;;18.04;51.71;99261.94;5007685;28;20411;-91
2022/11/06 09:42:59;;;;;;;13.10;6.53;;;;;;;18.17;51.46;99294.47;4997819;28;20076;-91
2022/11/06 09:45:27;;;;;;;13.10;6.50;;;;;;;18.08;51.41;99257.47;5006280;28;20026;-92
2022/11/06 09:48:09;;;;;;;13.75;6.00;;;;;;;18.21;51.07;99278.28;4992102;28;20033;-91
2022/11/06 09:50:41;;;;;;;10.60;5.22;;;;;;;18.18;50.12;99263.38;5006788;28;20043;-91
2022/11/06 09:53:38;;;;;;;9.88;5.45;;;;;;;18.27;49.87;99273.47;4987150;28;20621;-91
2022/11/06 09:56:03;;;;;;;9.18;5.20;;;;;;;18.34;49.41;99260.16;5015338;28;20029;-91
2022/11/06 09:58:36;;;;;;;10.35;5.40;;;;;;;18.38;48.89;99270.09;4996230;28;20029;-91
2022/11/06 10:01:09;;;;;;;7.45;6.05;;;;;;;18.52;48.72;99277.28;5000656;28;20039;-88
2022/11/06 10:03:40;;;;;;;13.75;6.88;;;;;;;18.45;49.14;99258.72;4993762;28;20068;-92
2022/11/06 10:06:10;;;;;;;21.05;11.50;;;;;;;18.51;50.02;99275.69;4992652;28;20403;-92
2022/11/06 10:08:36;;;;;;;12.32;7.88;;;;;;;18.53;49.79;99276.97;4999069;28;20519;-91
2022/11/06 10:11:05;;;;;;;12.23;6.10;;;;;;;18.48;48.86;99260.78;4997244;28;20029;-91
2022/11/06 10:13:43;;;;;;;10.00;4.85;;;;;;;18.66;48.05;99277.13;5010499;28;20496;-92
2022/11/06 10:16:41;;;;;;;11.10;5.75;;;;;;;18.76;47.99;99280.28;5024335;28;20025;-91
2022/11/06 10:19:15;;;;;;;13.30;5.65;;;;;;;18.77;47.81;99256.53;4956806;28;20038;-90
2022/11/06 10:21:52;;;;;;;12.70;5.78;;;;;;;18.90;47.95;99271.91;4956831;28;20045;-91
2022/11/06 10:24:26;;;;;;;10.98;5.45;;;;;;;18.85;48.10;99260.41;4962663;28;20035;-90
2022/11/06 10:26:53;;;;;;;11.55;5.97;;;;;;;18.93;47.40;99271.28;4958911;28;20034;-91
2022/11/06 10:29:39;;;;;;;19.85;6.25;;;;;;;18.88;47.36;99255.06;4941813;28;20026;-91
2022/11/06 10:33:06;;;;;;;13.07;5.45;;;;;;;18.93;47.62;99267.75;4940427;28;20121;-91
2022/11/06 10:35:38;;;;;;;11.60;5.50;;;;;;;19.02;47.76;99265.78;4884259;29;20044;-92
2022/11/06 10:38:30;;;;;;;15.40;6.10;;;;;;;19.00;47.49;99257.13;4970497;28;20046;-91
2022/11/06 10:40:55;;;;;;;;;;;;;;;19.12;46.96;99265.41;4943614;28;20050;-92
2022/11/06 10:43:33;;;;;;;16.88;6.00;;;;;;;19.04;46.89;99249.09;4991057;28;19957;-91
2022/11/06 10:46:22;;;;;;;13.40;5.97;;;;;;;19.09;46.80;99259.81;4974424;28;20085;-92
2022/11/06 10:48:50;;;;;;;19.58;7.50;;;;;;;19.17;46.60;99254.31;4970078;28;20026;-91
2022/11/06 10:51:35;;;;;;;11.35;6.28;;;;;;;19.24;46.50;99255.75;5003253;28;20033;-91
2022/11/06 10:54:03;;;;;;;22.70;8.65;;;;;;;19.29;46.44;99253.59;5022313;28;20060;-91
2022/11/06 10:56:50;;;;;;;11.15;5.65;;;;;;;19.45;45.71;99250.31;5010174;28;20392;-91
2022/11/06 10:59:16;;;;;;;11.85;6.05;;;;;;;19.43;45.63;99230.75;5014650;28;20086;-91
2022/11/06 11:01:41;;;;;;;11.23;6.20;;;;;;;19.56;45.39;99240.59;4982814;28;20038;-91
2022/11/06 11:04:07;;;;;;;11.27;6.57;;;;;;;19.57;45.14;99239.47;5008999;28;20021;-91
2022/11/06 11:06:34;;;;;;;9.45;6.35;;;;;;;19.61;45.46;99231.41;4985959;28;20030;-91
2022/11/06 11:09:00;;;;;;;11.77;5.95;;;;;;;19.74;44.63;99244.06;4999303;28;20017;-92
2022/11/06 11:11:27;;;;;;;13.27;7.57;;;;;;;19.78;45.15;99245.00;5004661;28;20091;-91
2022/11/06 11:13:55;;;;;;;12.43;6.93;;;;;;;19.83;44.78;99247.50;5030537;28;20021;-91
2022/11/06 11:16:27;;;;;;;14.68;6.45;;;;;;;19.85;44.60;99247.97;5023170;28;20494;-91
2022/11/06 11:18:53;;;;;;;10.73;6.55;;;;;;;19.88;44.61;99249.22;5005444;28;20021;-91
2022/11/06 11:21:19;;;;;;;10.88;6.90;;;;;;;19.96;44.51;99256.56;5006417;28;20036;-91
2022/11/06 11:24:00;;;;;;;17.45;5.93;;;;;;;19.89;44.69;99232.50;5019128;28;20141;-92
2022/11/06 11:26:27;;;;;;;16.85;6.53;;;;;;;19.92;43.89;99237.31;5027670;28;20033;-91
2022/11/06 11:29:00;;;;;;;12.48;6.75;;;;;;;19.99;43.88;99234.84;4992537;28;20028;-91
2022/11/06 11:31:30;;;;;;;14.75;6.97;;;;;;;20.04;43.97;99241.22;4993799;28;20029;-90
2022/11/06 11:33:58;;;;;;;10.57;6.03;;;;;;;20.06;43.71;99233.50;5010923;28;20084;-91
2022/11/06 11:36:26;;;;;;;13.68;7.13;;;;;;;20.11;43.64;99231.38;5009207;28;20458;-91
2022/11/06 11:38:53;;;;;;;16.65;7.68;;;;;;;20.22;43.31;99242.69;5034084;28;20081;-91
2022/11/06 11:41:24;;;;;;;12.43;7.00;;;;;;;20.30;43.49;99241.81;5015198;28;20063;-92
2022/11/06 11:44:13;;;;;;;13.07;7.15;;;;;;;20.32;43.19;99239.53;5013674;28;20388;-92
2022/11/06 11:46:52;;;;;;;15.05;7.05;;;;;;;20.30;43.55;99238.28;5021998;28;20026;-91
2022/11/06 11:49:28;;;;;;;22.13;8.25;;;;;;;20.13;43.43;99225.53;5011432;28;20028;-90
2022/11/06 11:51:58;;;;;;;14.18;7.28;;;;;;;20.21;43.66;99238.34;4989913;28;20160;-91
2022/11/06 11:54:26;;;;;;;11.88;7.18;;;;;;;20.10;43.83;99216.09;5020204;28;20032;-92
2022/11/06 11:57:22;;;;;;;15.50;8.35;;;;;;;20.31;43.45;99239.84;5017816;28;20489;-90